Time;durP1;ratioP1;P1;durP2;ratioP2;P2;SDS_P1;SDS_P2;PMS_P1;PMS_P2;Temp;Humidity;BMP_temperature;BMP_pressure;BME280_temperature;BME280_humidity;BME280_pressure;Samples;Min_cycle;Max_cycle;Signal;HPM_P1;HPM_P2
2024/01/14 00:00:48;;;;;;;45.33;14.40;;;-3.50;99.90;;;;;;5107030;28;20191;-67
2024/01/14 00:03:14;;;;;;;41.03;17.37;;;-3.40;99.90;;;;;;5114419;28;20232;-67
2024/01/14 00:05:39;;;;;;;43.37;15.80;;;-3.50;99.90;;;;;;5128785;27;20615;-66
2024/01/14 00:08:05;;;;;;;37.80;15.93;;;-3.50;99.90;;;;;;5115039;28;20673;-67
2024/01/14 00:10:30;;;;;;;42.30;15.60;;;-3.60;99.90;;;;;;5116917;27;20193;-66
2024/01/14 00:12:56;;;;;;;41.47;15.33;;;-3.60;99.90;;;;;;5126962;27;20188;-66
2024/01/14 00:15:21;;;;;;;33.37;14.10;;;-3.60;99.90;;;;;;5117062;27;20570;-66
2024/01/14 00:17:47;;;;;;;41.13;15.37;;;-3.60;99.90;;;;;;5135484;27;20179;-66
2024/01/14 00:20:12;;;;;;;37.03;15.70;;;-3.60;99.90;;;;;;5121374;27;20707;-67
2024/01/14 00:22:38;;;;;;;42.10;16.70;;;-3.60;99.90;;;;;;5126946;27;20620;-67
2024/01/14 00:25:04;;;;;;;44.40;16.90;;;-3.60;99.90;;;;;;5116008;27;20523;-67
2024/01/14 00:27:29;;;;;;;45.77;17.10;;;-3.70;99.90;;;;;;5124190;27;20214;-67
2024/01/14 00:29:57;;;;;;;45.03;16.50;;;-3.80;99.90;;;;;;5109828;28;20429;-67
2024/01/14 00:32:23;;;;;;;48.27;17.17;;;-3.80;99.90;;;;;;5114383;28;20176;-67
2024/01/14 00:34:48;;;;;;;52.70;18.40;;;-3.80;99.90;;;;;;5115601;27;20913;-67
2024/01/14 00:37:14;;;;;;;48.63;18.30;;;-3.90;99.90;;;;;;5126091;27;20188;-67
2024/01/14 00:39:39;;;;;;;44.73;17.93;;;-3.80;99.90;;;;;;5114461;28;20302;-67
2024/01/14 00:42:05;;;;;;;35.57;16.27;;;-3.80;99.90;;;;;;5114245;28;20183;-67
2024/01/14 00:44:31;;;;;;;45.10;17.77;;;-3.80;99.90;;;;;;5116938;27;20302;-66
2024/01/14 00:46:57;;;;;;;46.50;18.10;;;-3.80;99.90;;;;;;5114336;28;20508;-66
2024/01/14 00:49:22;;;;;;;53.13;19.53;;;-3.80;99.90;;;;;;5114010;27;20179;-67
2024/01/14 00:51:48;;;;;;;39.93;16.43;;;-3.90;99.90;;;;;;5123572;27;20424;-67
2024/01/14 00:54:13;;;;;;;44.53;15.03;;;-3.90;99.90;;;;;;5119629;27;20179;-66
2024/01/14 00:56:39;;;;;;;46.17;15.37;;;-3.90;99.90;;;;;;5106005;28;20192;-66
2024/01/14 00:59:05;;;;;;;48.27;18.00;;;-3.80;99.90;;;;;;5095667;28;20211;-66
2024/01/14 01:01:31;;;;;;;43.87;14.93;;;-3.80;99.90;;;;;;5122129;27;20186;-66
2024/01/14 01:03:56;;;;;;;37.53;16.13;;;-3.80;99.90;;;;;;5133948;27;20504;-67
2024/01/14 01:06:22;;;;;;;40.73;14.73;;;-3.80;99.90;;;;;;5126340;27;20184;-67
2024/01/14 01:08:47;;;;;;;33.40;14.97;;;-3.80;99.90;;;;;;5128193;27;20304;-67
2024/01/14 01:11:16;;;;;;;51.60;15.50;;;-3.80;99.90;;;;;;5125987;27;20198;-67
2024/01/14 01:13:42;;;;;;;38.40;15.83;;;-3.80;99.90;;;;;;5127167;27;20260;-66
2024/01/14 01:16:07;;;;;;;45.30;14.50;;;-3.90;99.90;;;;;;5113869;28;20902;-66
2024/01/14 01:18:33;;;;;;;47.63;16.10;;;-4.10;99.90;;;;;;5114154;27;20272;-66
2024/01/14 01:20:59;;;;;;;39.10;15.83;;;;;;;;;;5122070;27;20186;-66
2024/01/14 01:23:24;;;;;;;37.00;13.80;;;-4.10;99.90;;;;;;5105019;28;20736;-66
2024/01/14 01:25:50;;;;;;;41.07;15.97;;;-4.10;99.90;;;;;;5113193;28;20246;-66
2024/01/14 01:28:16;;;;;;;51.47;16.60;;;-4.10;99.90;;;;;;5111865;27;20231;-66
2024/01/14 01:30:41;;;;;;;47.80;16.77;;;-4.20;99.90;;;;;;5113627;28;20463;-67
2024/01/14 01:33:07;;;;;;;54.43;16.27;;;-4.20;99.90;;;;;;5125813;27;20224;-67
2024/01/14 01:35:32;;;;;;;41.33;16.70;;;-4.20;99.90;;;;;;5112928;28;20263;-66
2024/01/14 01:37:58;;;;;;;48.13;16.17;;;-4.20;99.90;;;;;;5126831;27;20183;-66
2024/01/14 01:40:23;;;;;;;41.47;15.43;;;-4.00;99.90;;;;;;5120202;27;20187;-66
2024/01/14 01:42:49;;;;;;;42.17;16.27;;;-4.00;99.90;;;;;;5118783;27;20192;-66
2024/01/14 01:45:15;;;;;;;52.13;15.73;;;-4.00;99.90;;;;;;5094251;28;20231;-67
2024/01/14 01:47:41;;;;;;;41.40;16.60;;;-4.10;99.90;;;;;;5125364;27;20456;-67
2024/01/14 01:50:08;;;;;;;32.33;12.40;;;-4.20;99.90;;;;;;5109931;27;20227;-66
2024/01/14 01:52:35;;;;;;;44.90;14.07;;;-4.20;99.90;;;;;;5110128;28;20425;-66
2024/01/14 01:55:02;;;;;;;41.20;14.93;;;-4.30;99.90;;;;;;5125902;27;20436;-66
2024/01/14 01:57:27;;;;;;;42.33;15.43;;;-4.30;99.90;;;;;;5123369;27;20409;-66
2024/01/14 01:59:54;;;;;;;39.10;15.70;;;;;;;;;;5120466;27;20949;-66
2024/01/14 02:02:21;;;;;;;35.80;13.70;;;-4.30;99.90;;;;;;5133008;27;20547;-66
2024/01/14 02:04:47;;;;;;;35.23;13.17;;;-4.30;99.90;;;;;;5133070;27;20514;-66
2024/01/14 02:07:13;;;;;;;32.10;13.60;;;;;;;;;;5119300;27;20453;-66
2024/01/14 02:09:39;;;;;;;60.93;17.63;;;-4.50;99.90;;;;;;5125062;27;20414;-66
2024/01/14 02:12:05;;;;;;;36.70;13.70;;;-4.40;99.90;;;;;;5113994;27;20451;-67
2024/01/14 02:14:31;;;;;;;53.50;17.43;;;;;;;;;;5124957;28;20179;-67
2024/01/14 02:16:56;;;;;;;42.10;15.33;;;-4.50;99.90;;;;;;5108446;28;20196;-67
2024/01/14 02:19:22;;;;;;;43.37;15.23;;;-4.60;99.90;;;;;;5090181;28;20471;-66
2024/01/14 02:22:08;;;;;;;51.63;16.77;;;-4.60;99.90;;;;;;5111639;28;20207;-66
2024/01/14 02:24:35;;;;;;;39.40;15.00;;;-4.80;99.90;;;;;;5112536;28;20632;-67
2024/01/14 02:27:01;;;;;;;41.33;16.87;;;-4.70;99.90;;;;;;5112658;28;20475;-67
2024/01/14 02:29:28;;;;;;;39.37;15.33;;;-4.70;99.90;;;;;;5112368;28;20413;-66
2024/01/14 02:31:54;;;;;;;44.43;16.83;;;-4.80;99.90;;;;;;5130804;28;20784;-66
2024/01/14 02:34:20;;;;;;;44.90;17.47;;;-4.80;99.90;;;;;;5121239;28;20490;-66
2024/01/14 02:36:45;;;;;;;41.50;15.17;;;-4.70;99.90;;;;;;5112193;28;20452;-66
2024/01/14 02:39:11;;;;;;;47.43;17.67;;;-4.70;99.90;;;;;;5112384;28;20183;-67
2024/01/14 02:41:36;;;;;;;43.53;15.47;;;-4.70;99.90;;;;;;5116472;28;20187;-67
2024/01/14 02:44:02;;;;;;;42.27;17.47;;;-4.70;99.90;;;;;;5114167;28;20224;-66
2024/01/14 02:46:29;;;;;;;46.03;18.07;;;-4.80;99.90;;;;;;5108898;28;20221;-66
2024/01/14 02:48:55;;;;;;;49.67;16.07;;;-4.70;99.90;;;;;;5085058;28;20235;-67
2024/01/14 02:51:21;;;;;;;43.67;15.80;;;-4.80;99.90;;;;;;5109071;28;20449;-67
2024/01/14 02:53:46;;;;;;;37.40;15.00;;;-4.80;99.90;;;;;;5126354;27;20186;-66
2024/01/14 02:56:12;;;;;;;43.93;15.43;;;-4.80;99.90;;;;;;5119055;27;20418;-66
2024/01/14 02:58:38;;;;;;;37.97;14.70;;;-4.80;99.90;;;;;;5106669;28;20176;-67
2024/01/14 03:01:03;;;;;;;38.97;14.00;;;-4.90;99.90;;;;;;5117328;27;20183;-66
2024/01/14 03:03:29;;;;;;;43.97;15.43;;;-4.90;99.90;;;;;;5136218;27;20424;-66
2024/01/14 03:05:55;;;;;;;34.13;14.30;;;-4.90;99.90;;;;;;5118691;27;20180;-66
2024/01/14 03:08:20;;;;;;;41.07;14.90;;;-4.90;99.90;;;;;;5126566;27;20195;-66
2024/01/14 03:10:46;;;;;;;41.00;13.90;;;-4.90;99.90;;;;;;5120078;27;20215;-66
2024/01/14 03:13:16;;;;;;;37.50;15.33;;;-4.90;99.90;;;;;;5111484;28;20982;-66
2024/01/14 03:15:42;;;;;;;33.33;13.40;;;-4.90;99.90;;;;;;5115800;28;20172;-67
2024/01/14 03:18:08;;;;;;;43.50;14.97;;;-4.80;99.90;;;;;;5126262;27;20916;-67
2024/01/14 03:20:33;;;;;;;44.67;15.27;;;-4.70;99.90;;;;;;5128083;27;20427;-66
2024/01/14 03:22:59;;;;;;;43.67;16.33;;;-4.60;99.90;;;;;;5115467;28;20635;-66
2024/01/14 03:25:24;;;;;;;37.00;15.70;;;-4.70;99.90;;;;;;5115836;28;20196;-66
2024/01/14 03:27:50;;;;;;;42.37;14.87;;;-4.70;99.90;;;;;;5121688;27;20199;-66
2024/01/14 03:30:15;;;;;;;41.20;15.10;;;-4.70;99.90;;;;;;5129385;27;20176;-67
2024/01/14 03:32:41;;;;;;;46.70;17.70;;;-4.60;99.90;;;;;;5114957;28;20715;-67
2024/01/14 03:35:07;;;;;;;52.50;17.63;;;-4.80;99.90;;;;;;5115581;28;20704;-66
2024/01/14 03:37:32;;;;;;;47.13;16.53;;;-3.20;99.90;;;;;;5114565;28;20192;-66
2024/01/14 03:39:58;;;;;;;41.57;16.90;;;-4.60;99.90;;;;;;5105372;28;20191;-66
2024/01/14 03:42:23;;;;;;;53.57;15.93;;;-4.70;99.90;;;;;;5115455;28;20187;-66
2024/01/14 03:44:49;;;;;;;48.53;17.97;;;-4.70;99.90;;;;;;5117946;27;20239;-66
2024/01/14 03:47:15;;;;;;;39.73;16.30;;;-4.70;99.90;;;;;;5119637;27;20678;-66
2024/01/14 03:49:41;;;;;;;51.87;17.33;;;-4.60;99.90;;;;;;5116638;27;20425;-66
2024/01/14 03:52:06;;;;;;;50.53;17.60;;;-4.60;99.90;;;;;;5126145;27;20178;-66
2024/01/14 03:54:32;;;;;;;27.53;12.10;;;-4.70;99.90;;;;;;5114072;27;20176;-66
2024/01/14 03:56:57;;;;;;;55.63;19.90;;;-4.60;99.90;;;;;;5105147;28;20180;-66
2024/01/14 03:59:23;;;;;;;41.53;15.30;;;-4.60;99.90;;;;;;5118658;27;20194;-66
2024/01/14 04:01:49;;;;;;;43.40;17.70;;;-4.60;99.90;;;;;;5125221;27;20195;-66
2024/01/14 04:04:14;;;;;;;47.43;14.67;;;-4.50;99.90;;;;;;5113341;28;20176;-66
2024/01/14 04:06:40;;;;;;;51.00;18.90;;;-4.60;99.90;;;;;;5106447;28;20429;-67
2024/01/14 04:09:05;;;;;;;52.47;18.00;;;-4.60;99.90;;;;;;5128231;27;20291;-67
2024/01/14 04:11:31;;;;;;;47.97;17.03;;;-4.50;99.90;;;;;;5115317;28;20255;-66
2024/01/14 04:13:56;;;;;;;45.30;15.77;;;-4.60;99.90;;;;;;5117836;27;20647;-66
2024/01/14 04:16:22;;;;;;;45.47;18.13;;;-4.30;99.90;;;;;;5135376;27;20624;-66
2024/01/14 04:18:47;;;;;;;48.57;18.60;;;-4.50;99.90;;;;;;5118912;27;20207;-66
2024/01/14 04:21:21;;;;;;;42.10;17.77;;;-4.50;99.90;;;;;;5114588;28;20198;-66
2024/01/14 04:23:46;;;;;;;47.30;15.00;;;-4.40;99.90;;;;;;5114599;28;20182;-66
2024/01/14 04:26:11;;;;;;;49.37;17.23;;;-4.40;99.90;;;;;;5114575;28;20422;-66
2024/01/14 04:28:37;;;;;;;49.77;17.20;;;-4.40;99.90;;;;;;5114507;28;20257;-66
2024/01/14 04:31:03;;;;;;;48.17;16.57;;;-4.40;99.90;;;;;;5125765;27;20221;-66
2024/01/14 04:33:28;;;;;;;44.83;15.80;;;-4.20;99.90;;;;;;5126015;27;20171;-67
2024/01/14 04:35:53;;;;;;;40.20;16.17;;;-4.50;99.90;;;;;;5124237;27;20232;-66
2024/01/14 04:38:19;;;;;;;47.63;16.87;;;-4.50;99.90;;;;;;5114248;28;20827;-66
2024/01/14 04:40:44;;;;;;;44.17;17.17;;;-4.50;99.90;;;;;;5114270;28;20188;-66
2024/01/14 04:43:11;;;;;;;46.80;17.20;;;-4.40;99.90;;;;;;5114038;28;20270;-66
2024/01/14 04:45:37;;;;;;;54.40;18.50;;;-4.40;99.90;;;;;;5114170;28;20564;-67
2024/01/14 04:48:03;;;;;;;42.43;17.00;;;-4.30;99.90;;;;;;5117193;27;20497;-67
2024/01/14 04:50:29;;;;;;;56.77;18.50;;;-4.30;99.90;;;;;;5127158;27;20176;-66
2024/01/14 04:52:55;;;;;;;51.13;17.20;;;-4.30;99.90;;;;;;5131456;27;20429;-67
2024/01/14 04:55:20;;;;;;;50.17;18.77;;;-4.30;99.90;;;;;;5123888;27;20255;-66
2024/01/14 04:57:46;;;;;;;46.67;17.50;;;-4.30;99.90;;;;;;5114659;27;20500;-66
2024/01/14 05:00:12;;;;;;;47.63;16.77;;;-4.20;99.90;;;;;;5107816;28;21012;-66
2024/01/14 05:02:38;;;;;;;47.83;17.57;;;-4.20;99.90;;;;;;5125193;27;20191;-66
2024/01/14 05:05:03;;;;;;;53.30;16.97;;;-4.20;99.90;;;;;;5089067;22;20539;-67
2024/01/14 05:07:29;;;;;;;48.00;18.53;;;-4.20;99.90;;;;;;5052694;28;20202;-67
2024/01/14 05:09:55;;;;;;;58.47;20.90;;;-4.10;99.90;;;;;;5052937;28;20585;-67
2024/01/14 05:12:20;;;;;;;43.20;17.70;;;-4.20;99.90;;;;;;5050262;28;20626;-67
2024/01/14 05:14:46;;;;;;;54.73;15.93;;;-4.20;99.90;;;;;;5052708;28;20178;-66
2024/01/14 05:17:11;;;;;;;44.23;16.50;;;-4.20;99.90;;;;;;5052582;28;20295;-66
2024/01/14 05:19:40;;;;;;;43.43;16.97;;;-4.10;99.90;;;;;;5052361;28;20182;-66
2024/01/14 05:22:06;;;;;;;46.07;16.47;;;-4.10;99.90;;;;;;5052736;28;20228;-66
2024/01/14 05:24:32;;;;;;;38.13;13.30;;;-4.00;99.90;;;;;;5052706;28;20412;-67
2024/01/14 05:26:57;;;;;;;46.30;14.27;;;-4.00;99.90;;;;;;5038926;28;20428;-67
2024/01/14 05:29:22;;;;;;;43.93;13.37;;;-4.00;99.90;;;;;;5044692;28;20599;-66
2024/01/14 05:31:48;;;;;;;40.93;13.97;;;-3.90;99.90;;;;;;5052611;28;20591;-66
2024/01/14 05:34:13;;;;;;;34.20;13.87;;;-4.00;99.90;;;;;;5045483;28;20282;-67
2024/01/14 05:36:39;;;;;;;38.03;13.77;;;-3.90;99.90;;;;;;5052254;28;20188;-67
2024/01/14 05:39:05;;;;;;;45.33;15.00;;;-4.00;99.90;;;;;;5043365;28;20229;-66
2024/01/14 05:41:31;;;;;;;30.10;12.83;;;-4.00;99.90;;;;;;5039496;28;20272;-66
2024/01/14 05:43:56;;;;;;;47.30;14.20;;;-4.10;99.90;;;;;;5045034;28;20190;-65
2024/01/14 05:46:22;;;;;;;42.70;13.13;;;-4.20;99.90;;;;;;5048648;28;20760;-66
2024/01/14 05:48:47;;;;;;;42.30;14.13;;;-4.20;99.90;;;;;;5053426;28;20287;-66
2024/01/14 05:51:13;;;;;;;40.37;13.83;;;-4.20;99.90;;;;;;5050927;28;20195;-65
2024/01/14 05:53:39;;;;;;;42.47;14.20;;;-4.20;99.90;;;;;;5056490;28;20182;-65
2024/01/14 05:56:05;;;;;;;43.00;14.50;;;-4.30;99.90;;;;;;5042419;28;20200;-65
2024/01/14 05:58:30;;;;;;;41.13;14.77;;;-3.90;99.90;;;;;;5043988;28;20182;-65
2024/01/14 06:00:56;;;;;;;43.13;14.63;;;-4.20;99.90;;;;;;5053232;28;20443;-67
2024/01/14 06:03:21;;;;;;;49.53;15.33;;;-4.20;99.90;;;;;;5052017;28;20231;-67
2024/01/14 06:05:47;;;;;;;54.07;15.57;;;-4.30;99.90;;;;;;5051404;28;20736;-67
2024/01/14 06:08:13;;;;;;;53.10;15.33;;;-4.40;99.90;;;;;;5051580;28;20734;-67
2024/01/14 06:10:38;;;;;;;56.50;14.23;;;-4.30;99.90;;;;;;5047714;28;20178;-67
2024/01/14 06:13:04;;;;;;;50.33;14.70;;;-4.30;99.90;;;;;;5040555;28;20265;-67
2024/01/14 06:15:30;;;;;;;41.90;14.50;;;-4.40;99.90;;;;;;5051900;28;20182;-66
2024/01/14 06:17:56;;;;;;;55.23;16.10;;;-4.30;99.90;;;;;;5048003;28;20528;-66
2024/01/14 06:20:21;;;;;;;48.37;16.47;;;-4.30;99.90;;;;;;5047155;28;20194;-66
2024/01/14 06:22:47;;;;;;;48.50;16.23;;;-4.40;99.90;;;;;;5049807;28;20197;-66
2024/01/14 06:25:12;;;;;;;50.47;17.03;;;-4.40;99.90;;;;;;5046802;28;20225;-66
2024/01/14 06:27:38;;;;;;;53.50;15.33;;;-4.30;99.90;;;;;;5050145;28;20285;-66
2024/01/14 06:30:04;;;;;;;45.23;17.33;;;-4.50;99.90;;;;;;5050954;28;20192;-67
2024/01/14 06:32:31;;;;;;;50.57;15.90;;;-4.50;99.90;;;;;;5055995;28;20212;-67
2024/01/14 06:34:58;;;;;;;49.53;13.03;;;-4.50;99.90;;;;;;5045832;28;20458;-66
2024/01/14 06:37:23;;;;;;;38.33;13.87;;;-4.50;99.90;;;;;;5055869;28;20793;-66
2024/01/14 06:39:49;;;;;;;32.40;14.10;;;-4.60;99.90;;;;;;5055830;28;20424;-67
2024/01/14 06:42:15;;;;;;;37.47;13.50;;;-4.60;99.90;;;;;;5046865;28;20217;-67
2024/01/14 06:44:40;;;;;;;38.67;13.47;;;-4.50;99.90;;;;;;5055455;28;20197;-66
2024/01/14 06:47:06;;;;;;;42.40;13.87;;;-4.50;99.90;;;;;;5055540;28;20426;-66
2024/01/14 06:49:31;;;;;;;43.40;14.60;;;-4.50;99.90;;;;;;5054963;28;20204;-67
2024/01/14 06:51:57;;;;;;;33.20;10.90;;;-4.50;99.90;;;;;;5055410;28;20554;-67
2024/01/14 06:54:23;;;;;;;41.43;15.00;;;-4.50;99.90;;;;;;5053020;28;20228;-66
2024/01/14 06:56:48;;;;;;;40.03;12.77;;;-4.50;99.90;;;;;;5044162;28;20634;-66
2024/01/14 06:59:18;;;;;;;33.90;13.30;;;-4.50;99.90;;;;;;5038777;28;20558;-66
2024/01/14 07:01:44;;;;;;;40.67;14.57;;;-4.50;99.90;;;;;;5055502;28;20182;-66
2024/01/14 07:04:09;;;;;;;31.63;14.73;;;-4.50;99.90;;;;;;5043346;28;21028;-66
2024/01/14 07:06:35;;;;;;;29.30;11.87;;;-4.40;99.90;;;;;;5055192;28;20499;-66
2024/01/14 07:09:01;;;;;;;39.43;14.47;;;-4.60;99.90;;;;;;5054655;28;20205;-66
2024/01/14 07:11:26;;;;;;;50.60;14.73;;;-4.10;99.90;;;;;;5053277;28;20268;-66
2024/01/14 07:13:51;;;;;;;32.90;13.80;;;-4.50;99.90;;;;;;5055004;28;20650;-67
2024/01/14 07:16:17;;;;;;;41.63;14.90;;;-4.50;99.90;;;;;;5055099;28;20205;-67
2024/01/14 07:18:43;;;;;;;37.50;15.07;;;-4.40;99.90;;;;;;5054316;28;20194;-67
2024/01/14 07:21:10;;;;;;;39.47;14.93;;;-4.40;99.90;;;;;;5055011;28;20638;-67
2024/01/14 07:23:37;;;;;;;34.90;14.77;;;-4.40;99.90;;;;;;5054860;28;20184;-67
2024/01/14 07:26:04;;;;;;;48.53;14.63;;;-4.40;99.90;;;;;;5054859;28;20477;-66
2024/01/14 07:28:30;;;;;;;53.43;16.30;;;-4.30;99.90;;;;;;5046741;28;20926;-64
2024/01/14 07:30:56;;;;;;;36.67;14.87;;;-4.30;99.90;;;;;;5054935;28;20420;-64
2024/01/14 07:33:21;;;;;;;37.63;14.83;;;-4.20;99.90;;;;;;5054445;28;20462;-65
2024/01/14 07:35:47;;;;;;;39.23;14.43;;;-3.70;99.90;;;;;;5053347;28;20558;-65
2024/01/14 07:38:13;;;;;;;47.93;16.40;;;-4.30;99.90;;;;;;5054615;28;20658;-65
2024/01/14 07:40:41;;;;;;;33.03;12.70;;;-4.40;99.90;;;;;;5054654;28;20192;-65
2024/01/14 07:43:07;;;;;;;43.37;14.73;;;-3.00;99.90;;;;;;5049662;28;20454;-65
2024/01/14 07:45:33;;;;;;;43.17;17.20;;;-4.40;99.90;;;;;;5044183;28;20515;-65
2024/01/14 07:47:58;;;;;;;56.77;16.63;;;-4.60;99.90;;;;;;5053058;28;20582;-65
2024/01/14 07:50:24;;;;;;;42.67;14.20;;;-4.60;99.90;;;;;;5043997;28;20190;-65
2024/01/14 07:52:50;;;;;;;39.33;16.83;;;-4.60;99.90;;;;;;5053986;28;20603;-65
2024/01/14 07:55:16;;;;;;;45.07;16.13;;;-4.50;99.90;;;;;;5044803;28;20202;-65
2024/01/14 07:57:41;;;;;;;44.43;15.57;;;-4.60;99.90;;;;;;5044102;28;20480;-65
2024/01/14 08:00:07;;;;;;;44.07;14.60;;;-4.50;99.90;;;;;;5043192;28;20182;-65
2024/01/14 08:02:33;;;;;;;45.67;14.97;;;-4.60;99.90;;;;;;5050427;28;20225;-65
2024/01/14 08:04:58;;;;;;;60.77;16.03;;;-4.60;99.90;;;;;;5053314;28;20495;-65
2024/01/14 08:07:24;;;;;;;57.83;15.73;;;-4.60;99.90;;;;;;5053896;28;20204;-65
2024/01/14 08:09:49;;;;;;;46.97;14.80;;;-4.80;99.90;;;;;;5053864;28;20180;-65
2024/01/14 08:12:15;;;;;;;54.70;16.90;;;-4.90;99.90;;;;;;5052758;28;20190;-65
2024/01/14 08:14:40;;;;;;;58.60;16.50;;;-4.90;99.90;;;;;;5053707;28;20630;-65
2024/01/14 08:17:06;;;;;;;53.87;16.87;;;-4.70;99.90;;;;;;5053762;28;20185;-65
2024/01/14 08:19:31;;;;;;;40.60;16.80;;;-4.70;99.90;;;;;;5053055;28;20176;-65
2024/01/14 08:21:57;;;;;;;52.57;17.30;;;-4.90;99.90;;;;;;5053776;28;20182;-65
2024/01/14 08:24:22;;;;;;;38.77;15.40;;;-4.80;99.90;;;;;;5053417;28;20186;-66
2024/01/14 08:26:48;;;;;;;51.43;18.20;;;-4.90;99.90;;;;;;5053136;28;20323;-66
2024/01/14 08:29:14;;;;;;;46.07;16.57;;;-4.80;99.90;;;;;;5045628;28;20200;-65
2024/01/14 08:31:40;;;;;;;42.10;16.90;;;-4.80;99.90;;;;;;5053432;28;20423;-65
2024/01/14 08:34:07;;;;;;;59.87;18.43;;;-4.80;99.90;;;;;;5049248;28;20181;-65
2024/01/14 08:36:32;;;;;;;47.03;17.50;;;-4.70;99.90;;;;;;5053310;28;20424;-65
2024/01/14 08:38:58;;;;;;;36.93;13.70;;;-4.70;99.90;;;;;;5053124;28;20432;-66
2024/01/14 08:41:24;;;;;;;49.37;15.60;;;-4.60;99.90;;;;;;5045440;28;20217;-66
2024/01/14 08:43:55;;;;;;;52.87;17.60;;;-4.60;99.90;;;;;;5045702;28;20186;-66
2024/01/14 08:46:21;;;;;;;43.20;16.23;;;-4.50;99.90;;;;;;5049855;28;20471;-66
2024/01/14 08:48:47;;;;;;;49.63;16.37;;;-4.50;99.90;;;;;;5041854;28;20477;-66
2024/01/14 08:51:13;;;;;;;41.80;15.30;;;-4.50;99.90;;;;;;5049165;28;20216;-66
2024/01/14 08:53:39;;;;;;;45.67;16.63;;;-4.40;99.90;;;;;;5046289;28;20452;-66
2024/01/14 08:56:05;;;;;;;40.53;15.63;;;-4.40;99.90;;;;;;5035729;28;20846;-64
2024/01/14 08:58:31;;;;;;;49.90;15.40;;;-4.30;99.90;;;;;;5040155;28;20456;-63
2024/01/14 09:00:56;;;;;;;42.67;15.83;;;-4.40;99.90;;;;;;5049210;28;20519;-65
2024/01/14 09:03:22;;;;;;;51.93;16.70;;;-4.40;99.90;;;;;;5052261;28;20323;-65
2024/01/14 09:05:47;;;;;;;47.03;16.20;;;-4.40;99.90;;;;;;5052429;28;20319;-65
2024/01/14 09:08:13;;;;;;;41.37;14.90;;;-4.30;99.90;;;;;;5052613;28;20305;-65
2024/01/14 09:10:38;;;;;;;45.77;13.60;;;-4.40;99.90;;;;;;5051514;28;20190;-64
2024/01/14 09:13:05;;;;;;;40.37;14.70;;;-4.50;99.90;;;;;;5048174;28;20647;-65
2024/01/14 09:15:30;;;;;;;37.37;15.73;;;-4.40;99.90;;;;;;5048739;28;20197;-66
2024/01/14 09:17:56;;;;;;;46.93;14.97;;;-4.20;99.90;;;;;;5048922;28;20435;-66
2024/01/14 09:20:22;;;;;;;50.73;16.33;;;-4.00;99.90;;;;;;5048433;28;20631;-64
2024/01/14 09:22:48;;;;;;;40.60;15.30;;;-4.10;99.90;;;;;;5048895;28;20425;-65
2024/01/14 09:25:14;;;;;;;52.13;17.77;;;-4.10;99.90;;;;;;5048321;28;20197;-66
2024/01/14 09:27:40;;;;;;;46.90;15.37;;;-4.20;99.90;;;;;;5048692;28;20669;-66
2024/01/14 09:30:07;;;;;;;44.83;17.83;;;-4.10;99.90;;;;;;5048258;28;20420;-65
2024/01/14 09:32:33;;;;;;;48.43;17.50;;;-4.10;99.90;;;;;;5052739;28;20189;-65
2024/01/14 09:34:58;;;;;;;54.83;16.90;;;-4.50;99.90;;;;;;5043895;28;20417;-64
2024/01/14 09:37:24;;;;;;;41.40;15.30;;;-4.30;99.90;;;;;;5052342;28;20208;-65
2024/01/14 09:39:49;;;;;;;43.63;16.53;;;-4.20;99.90;;;;;;5035428;28;20182;-65
2024/01/14 09:42:24;;;;;;;45.00;17.10;;;-4.10;99.90;;;;;;5043959;28;20193;-65
2024/01/14 09:45:01;;;;;;;43.43;15.87;;;-4.10;99.90;;;;;;5041104;28;20181;-65
2024/01/14 09:47:28;;;;;;;46.13;16.00;;;-3.90;99.90;;;;;;5052315;28;20459;-64
2024/01/14 09:49:57;;;;;;;49.73;15.63;;;-4.30;99.90;;;;;;5051825;28;20859;-65
2024/01/14 09:52:24;;;;;;;43.87;15.90;;;-4.40;99.90;;;;;;5052769;28;20420;-65
2024/01/14 09:54:50;;;;;;;49.23;15.80;;;-4.40;99.90;;;;;;5027540;28;20434;-64
2024/01/14 09:57:18;;;;;;;39.77;14.40;;;-4.30;99.90;;;;;;5028590;28;20464;-65
2024/01/14 09:59:44;;;;;;;38.70;15.67;;;-4.20;99.90;;;;;;5033037;28;20414;-65
2024/01/14 10:02:13;;;;;;;45.00;15.67;;;-4.10;99.90;;;;;;5044294;28;20420;-65
2024/01/14 10:04:45;;;;;;;53.13;15.83;;;-4.30;99.90;;;;;;5051352;28;20499;-66
2024/01/14 10:07:11;;;;;;;43.27;16.10;;;-4.20;99.90;;;;;;5051967;28;20420;-65
2024/01/14 10:09:39;;;;;;;38.13;14.90;;;-3.90;99.90;;;;;;5039570;28;20432;-67
2024/01/14 10:12:08;;;;;;;42.53;15.03;;;-3.90;99.90;;;;;;5050862;28;20749;-67
2024/01/14 10:14:34;;;;;;;45.17;16.20;;;-4.00;99.90;;;;;;5033425;28;20910;-66
2024/01/14 10:17:00;;;;;;;39.53;14.30;;;-5.10;99.90;;;;;;5028354;28;20421;-65
2024/01/14 10:19:26;;;;;;;36.30;12.57;;;-3.70;99.90;;;;;;5051687;28;20416;-67
2024/01/14 10:21:53;;;;;;;32.10;13.87;;;-3.60;99.90;;;;;;5052148;28;20711;-67
2024/01/14 10:24:18;;;;;;;32.90;12.70;;;-3.70;99.90;;;;;;5030893;28;20191;-65
2024/01/14 10:26:44;;;;;;;47.37;15.03;;;-3.60;99.90;;;;;;5040111;28;20436;-66
2024/01/14 10:29:09;;;;;;;36.27;16.07;;;-3.40;99.90;;;;;;5048709;28;20227;-66
2024/01/14 10:31:35;;;;;;;44.27;13.60;;;-3.30;99.90;;;;;;5051842;28;20177;-66
2024/01/14 10:34:02;;;;;;;44.63;14.60;;;-3.20;99.90;;;;;;5051540;28;20231;-67
2024/01/14 10:36:31;;;;;;;32.97;13.33;;;-3.00;99.90;;;;;;5051639;28;20474;-67
2024/01/14 10:38:59;;;;;;;35.30;12.00;;;-2.80;99.90;;;;;;5042157;28;20431;-66
2024/01/14 10:41:25;;;;;;;36.17;12.00;;;-2.80;99.90;;;;;;5018034;28;20492;-66
2024/01/14 10:43:51;;;;;;;36.60;12.50;;;-2.70;99.90;;;;;;5024881;28;20429;-66
2024/01/14 10:46:17;;;;;;;36.47;11.77;;;-2.50;99.90;;;;;;5044301;28;20732;-66
2024/01/14 10:48:49;;;;;;;34.50;13.70;;;-2.40;99.90;;;;;;5037874;28;20483;-66
2024/01/14 10:51:16;;;;;;;36.07;12.90;;;-2.30;99.90;;;;;;5050102;28;20189;-66
2024/01/14 10:54:08;;;;;;;38.07;12.90;;;-2.20;99.90;;;;;;5050609;28;20416;-66
2024/01/14 10:56:39;;;;;;;37.87;14.33;;;-2.30;99.90;;;;;;5014473;28;21558;-66
2024/01/14 10:59:10;;;;;;;35.23;11.97;;;-2.20;99.90;;;;;;5019518;28;20421;-65
2024/01/14 11:01:44;;;;;;;32.87;11.17;;;-2.20;99.90;;;;;;5043614;28;20416;-66
2024/01/14 11:04:10;;;;;;;36.73;12.50;;;-2.00;99.90;;;;;;5050249;28;20539;-65
2024/01/14 11:06:37;;;;;;;33.83;12.00;;;-1.80;99.90;;;;;;5050663;28;20466;-65
2024/01/14 11:09:03;;;;;;;32.53;11.17;;;-1.70;99.90;;;;;;5050517;28;20464;-65
2024/01/14 11:11:38;;;;;;;30.80;10.80;;;-1.60;99.90;;;;;;5041378;28;20420;-65
2024/01/14 11:14:13;;;;;;;37.97;12.03;;;-1.50;99.90;;;;;;5052297;28;20415;-65
2024/01/14 11:16:48;;;;;;;31.52;13.02;;;-1.40;99.90;;;;;;5052440;28;20404;-65
2024/01/14 11:19:18;;;;;;;36.25;10.95;;;-1.30;99.90;;;;;;5053144;28;20533;-65
2024/01/14 11:22:17;;;;;;;30.40;12.70;;;-0.90;99.90;;;;;;5052268;28;20403;-65
2024/01/14 11:24:43;;;;;;;34.17;13.00;;;-0.90;99.90;;;;;;5042256;28;20651;-66
2024/01/14 11:27:09;;;;;;;28.47;11.20;;;-1.00;99.90;;;;;;5044483;28;20417;-66
2024/01/14 11:29:36;;;;;;;24.20;10.27;;;-0.90;99.90;;;;;;5043528;28;20529;-66
2024/01/14 11:32:13;;;;;;;32.70;9.97;;;-0.80;99.90;;;;;;5053481;28;20178;-66
2024/01/14 11:34:44;;;;;;;22.40;10.20;;;-0.50;99.90;;;;;;5049227;28;21260;-66
2024/01/14 11:37:10;;;;;;;27.97;10.60;;;-0.50;99.90;;;;;;5052405;28;20503;-66
2024/01/14 11:39:36;;;;;;;23.97;10.57;;;-0.40;99.90;;;;;;5051922;28;20879;-66
2024/01/14 11:42:02;;;;;;;29.63;9.87;;;-0.10;99.90;;;;;;5044651;28;20241;-66
2024/01/14 11:44:31;;;;;;;33.03;11.93;;;0.40;99.90;;;;;;5041599;28;20175;-66
2024/01/14 11:46:56;;;;;;;21.27;8.97;;;-0.10;99.90;;;;;;5051941;28;21083;-67
2024/01/14 11:49:23;;;;;;;30.97;8.70;;;0.00;99.90;;;;;;5039324;28;20457;-66
2024/01/14 11:51:59;;;;;;;25.83;8.80;;;0.00;99.90;;;;;;5051524;28;20279;-66
2024/01/14 11:54:25;;;;;;;27.73;9.77;;;0.10;99.90;;;;;;5048961;28;20428;-66
2024/01/14 11:56:51;;;;;;;25.17;9.93;;;-0.20;99.90;;;;;;5049524;28;20416;-67
2024/01/14 11:59:17;;;;;;;22.63;8.87;;;-0.30;99.90;;;;;;5036671;28;20194;-67
2024/01/14 12:01:43;;;;;;;30.13;11.87;;;-0.20;99.90;;;;;;5052970;28;20447;-67
2024/01/14 12:04:08;;;;;;;22.53;8.77;;;-0.30;99.90;;;;;;5050015;28;20580;-67
2024/01/14 12:06:41;;;;;;;27.67;9.63;;;-0.30;99.90;;;;;;5049645;28;20186;-67
2024/01/14 12:09:08;;;;;;;23.70;10.03;;;-0.20;99.90;;;;;;5044710;28;20718;-67
2024/01/14 12:11:34;;;;;;;21.23;10.03;;;-0.20;99.90;;;;;;5049196;28;20416;-66
2024/01/14 12:14:00;;;;;;;23.67;9.17;;;-0.20;99.90;;;;;;5052883;28;20494;-66
2024/01/14 12:16:26;;;;;;;20.97;9.20;;;-0.10;99.80;;;;;;5049557;28;20460;-66
2024/01/14 12:18:51;;;;;;;29.40;10.87;;;-0.20;99.90;;;;;;5039252;28;20204;-66
2024/01/14 12:21:18;;;;;;;35.80;10.80;;;0.10;99.90;;;;;;5043340;28;20515;-66
2024/01/14 12:23:45;;;;;;;25.70;8.80;;;-0.10;99.80;;;;;;5046273;28;20181;-66